Moss, MS (39460)

8:55 AM CDT on July 24, 2016 (GMT -0500)
South Central Regional Medical Center, Laurel, MS | | Change Station

Elev 259 ft 31.69 °N, 89.14 °W | Updated 5 seconds ago

Clear
Clear
80.3 °F
Feels Like 87 °F
N
0.0
Wind Variable Wind from North
Gusts 0.0 mph

Today
High -- | Low -- °F
--% Chance of Precip.
Yesterday
High -- | Low -- °F
Precip. -- in
Pressure 30.01 in
Visibility 9.0 miles
Clouds Clear
Heat Index 87 °F
Dew Point 77 °F
Humidity 91%
Rainfall 0.00 in
Snow Depth Not available.
6:07 AM 7:58 PM
Waning Gibbous, 76% visible
METAR KHBG 241253Z AUTO 14003KT 9SM CLR 26/24 A3002 RMK AO2 SLP161 T02560239
Pressure 30.01 in
Visibility 9.0 miles
Clouds Clear
Heat Index 87 °F
Dew Point 77 °F
Humidity 91%
Rainfall 0.00 in
Snow Depth Not available.
6:07 AM 7:58 PM
Waning Gibbous, 76% visible
METAR KHBG 241253Z AUTO 14003KT 9SM CLR 26/24 A3002 RMK AO2 SLP161 T02560239

10-Day Weather Forecast

Almanac

Astronomy

Jul. 24, 2016 Rise Set
Actual Time
Civil Twilight
Nautical Twilight
Astronomical Twilight
Moon
Length of Visible Light
Length of Day
Tomorrow will be .
, % of the Moon is Illuminated

Today's Extremes

State Highs State Lows

Community

WunderPhotos

Upload Photos

1,927,057 photos uploaded!

WunderBlog® & News

Nearby

Air Quality

  Air Quality AQ Index Pollutant
Not available.

Snow Depth

Station Depth Elevation

Earthquake Activity

City Distance Mag. Time & Date
Minimum magnitude displayed is 2.5.

Coastal Water Temperatures

Place Temperature

Stations

Nearby Weather Stations

Station Location Temp. Windchill Dew Point Humidity Wind Precip. Elev Updated Type
                   

Watches & Warnings

There are currently no watches in effect.